createdAt,value
2023-05-05T00:00:20.318Z,8.62
2023-05-05T00:01:20.314Z,7.46
2023-05-05T00:02:20.357Z,8.92
2023-05-05T00:03:20.400Z,8.01
2023-05-05T00:04:20.433Z,8.27
2023-05-05T00:05:20.367Z,8.78
2023-05-05T00:06:20.276Z,8.54
2023-05-05T00:07:20.347Z,8.23
2023-05-05T00:08:20.358Z,8.51
2023-05-05T00:09:20.361Z,9.24
2023-05-05T00:10:20.376Z,9.31
2023-05-05T00:11:20.306Z,8.78
2023-05-05T00:12:20.331Z,9.18
2023-05-05T00:13:20.377Z,9.53
2023-05-05T00:14:20.338Z,9.56
2023-05-05T00:15:20.346Z,9.29
2023-05-05T00:16:20.497Z,9.53
2023-05-05T00:17:20.980Z,9.10
2023-05-05T00:18:20.386Z,9.30
2023-05-05T00:19:20.313Z,9.02
2023-05-05T00:20:20.382Z,8.26
2023-05-05T00:21:20.366Z,9.34
2023-05-05T00:22:20.392Z,8.74
2023-05-05T00:23:20.417Z,8.88
2023-05-05T00:24:20.322Z,9.21
2023-05-05T00:25:20.400Z,8.48
2023-05-05T00:26:20.380Z,8.24
2023-05-05T00:27:20.376Z,7.58
2023-05-05T00:28:20.386Z,7.44
2023-05-05T00:29:20.333Z,7.07
2023-05-05T00:31:20.374Z,7.59
2023-05-05T00:32:20.422Z,7.65
2023-05-05T00:33:20.369Z,7.37
2023-05-05T00:34:20.418Z,7.72
2023-05-05T00:36:20.392Z,7.38
2023-05-05T00:38:20.408Z,8.05
2023-05-05T00:39:20.398Z,9.12
2023-05-05T00:40:20.428Z,7.40
2023-05-05T00:41:20.424Z,8.56
2023-05-05T00:42:20.408Z,8.11
2023-05-05T00:43:20.450Z,9.08
2023-05-05T00:44:20.420Z,9.83
2023-05-05T00:45:20.370Z,8.81
2023-05-05T00:46:20.571Z,8.44
2023-05-05T00:47:20.451Z,8.12
2023-05-05T00:49:20.491Z,8.36
2023-05-05T00:51:20.431Z,8.07
2023-05-05T00:53:20.485Z,8.23
2023-05-05T00:54:21.208Z,7.62
2023-05-05T00:55:20.405Z,7.08
2023-05-05T00:56:20.427Z,7.83
2023-05-05T00:57:20.452Z,9.18
2023-05-05T00:58:20.434Z,8.05
2023-05-05T00:59:20.461Z,8.06
2023-05-05T01:00:20.498Z,7.85
2023-05-05T01:02:20.496Z,7.60
2023-05-05T01:03:20.578Z,8.41
2023-05-05T01:04:20.464Z,8.05
2023-05-05T01:05:20.458Z,7.83
2023-05-05T01:06:20.635Z,7.70
2023-05-05T01:07:20.471Z,8.24
2023-05-05T01:09:20.505Z,8.40
2023-05-05T01:10:21.009Z,9.02
2023-05-05T01:11:20.499Z,8.48
2023-05-05T01:12:20.514Z,7.78
2023-05-05T01:13:20.449Z,7.94
2023-05-05T01:14:20.517Z,8.85
2023-05-05T01:15:20.501Z,9.42
2023-05-05T01:16:20.512Z,8.01
2023-05-05T01:17:20.542Z,7.79
2023-05-05T01:18:20.497Z,8.77
2023-05-05T01:19:20.538Z,7.89
2023-05-05T01:20:20.507Z,7.63
2023-05-05T01:21:20.481Z,9.06
2023-05-05T01:22:20.553Z,9.87
2023-05-05T01:23:20.534Z,8.91
2023-05-05T01:24:20.541Z,8.22
2023-05-05T01:25:20.542Z,8.49
2023-05-05T01:26:20.513Z,8.75
2023-05-05T01:27:20.520Z,8.46
2023-05-05T01:28:20.580Z,8.24
2023-05-05T01:29:20.571Z,8.86
2023-05-05T01:30:20.531Z,8.99
2023-05-05T01:31:21.399Z,8.62
2023-05-05T01:32:20.563Z,7.82
2023-05-05T01:33:20.581Z,8.09
2023-05-05T01:34:20.519Z,8.73
2023-05-05T01:36:20.550Z,8.68
2023-05-05T01:38:20.547Z,9.21
2023-05-05T01:39:20.539Z,8.39
2023-05-05T01:40:20.560Z,8.11
2023-05-05T01:41:20.560Z,8.93
2023-05-05T01:42:20.535Z,8.67
2023-05-05T01:43:20.553Z,8.24
2023-05-05T01:46:20.654Z,8.29
2023-05-05T01:47:20.543Z,8.68
2023-05-05T01:48:20.602Z,8.90
2023-05-05T01:49:20.586Z,9.52
2023-05-05T01:50:20.576Z,8.62
2023-05-05T01:51:20.597Z,8.29
2023-05-05T01:52:20.558Z,8.74
2023-05-05T01:53:20.587Z,8.38
2023-05-05T01:54:20.562Z,8.36
2023-05-05T01:55:20.642Z,8.82
2023-05-05T01:56:20.615Z,8.61
2023-05-05T01:57:20.557Z,8.61
2023-05-05T01:58:20.633Z,8.23
2023-05-05T01:59:20.616Z,9.17
2023-05-05T02:00:20.582Z,8.18
2023-05-05T02:01:20.665Z,8.09
2023-05-05T02:02:20.655Z,8.22
2023-05-05T02:03:20.738Z,9.07
2023-05-05T02:04:20.625Z,9.22
2023-05-05T02:05:20.585Z,9.14
2023-05-05T02:07:20.677Z,8.40
2023-05-05T02:08:21.578Z,8.28
2023-05-05T02:09:20.655Z,8.14
2023-05-05T02:10:20.599Z,8.54
2023-05-05T02:12:20.642Z,8.38
2023-05-05T02:13:20.719Z,8.02
2023-05-05T02:15:20.681Z,9.03
2023-05-05T02:16:20.720Z,7.79
2023-05-05T02:17:20.629Z,7.83
2023-05-05T02:18:20.612Z,8.99
2023-05-05T02:19:20.681Z,8.43
2023-05-05T02:20:20.678Z,8.45
2023-05-05T02:21:20.685Z,8.21
2023-05-05T02:22:20.659Z,7.94
2023-05-05T02:24:20.692Z,9.05
2023-05-05T02:25:20.673Z,9.13
2023-05-05T02:29:20.704Z,8.86
2023-05-05T02:30:20.752Z,9.44
2023-05-05T02:31:20.746Z,8.24
2023-05-05T02:32:20.763Z,9.08
2023-05-05T02:34:20.727Z,9.60
2023-05-05T02:36:20.701Z,9.10
2023-05-05T02:37:20.706Z,9.21
2023-05-05T02:39:20.683Z,10.08
2023-05-05T02:43:20.788Z,8.98
2023-05-05T02:44:20.695Z,8.42
2023-05-05T02:45:21.967Z,9.27
2023-05-05T02:46:20.738Z,9.54
2023-05-05T02:47:20.732Z,8.56
2023-05-05T02:48:20.743Z,8.59
2023-05-05T02:49:20.744Z,9.40
2023-05-05T02:50:20.733Z,9.39
2023-05-05T02:52:20.703Z,8.72
2023-05-05T02:53:20.742Z,8.28
2023-05-05T02:54:20.725Z,9.12
2023-05-05T02:55:20.751Z,8.25
2023-05-05T02:57:20.796Z,8.98
2023-05-05T02:58:20.763Z,8.83
2023-05-05T03:01:20.812Z,8.98
2023-05-05T03:02:20.805Z,9.11
2023-05-05T03:03:20.797Z,9.78
2023-05-05T03:04:20.765Z,9.72
2023-05-05T03:05:20.808Z,8.97
2023-05-05T03:06:20.771Z,8.83
2023-05-05T03:07:20.905Z,9.84
2023-05-05T03:08:20.787Z,9.40
2023-05-05T03:09:20.789Z,8.47
2023-05-05T03:10:20.785Z,8.59
2023-05-05T03:11:20.790Z,8.35
2023-05-05T03:12:20.833Z,8.68
2023-05-05T03:13:20.810Z,8.19
2023-05-05T03:14:20.775Z,9.14
2023-05-05T03:15:20.794Z,8.45
2023-05-05T03:16:20.827Z,8.43
2023-05-05T03:17:20.819Z,8.26
2023-05-05T03:18:20.829Z,7.81
2023-05-05T03:19:20.852Z,7.14
2023-05-05T03:20:20.777Z,7.26
2023-05-05T03:21:20.809Z,9.22
2023-05-05T03:22:22.201Z,8.35
2023-05-05T03:24:20.826Z,8.22
2023-05-05T03:25:20.784Z,8.29
2023-05-05T03:26:20.853Z,7.71
2023-05-05T03:27:20.853Z,8.53
2023-05-05T03:28:20.831Z,8.02
2023-05-05T03:29:20.868Z,8.34
2023-05-05T03:30:20.838Z,8.20
2023-05-05T03:31:20.821Z,7.07
2023-05-05T03:32:20.839Z,7.67
2023-05-05T03:33:20.809Z,7.37
2023-05-05T03:34:20.871Z,8.55
2023-05-05T03:35:20.855Z,8.51
2023-05-05T03:36:20.849Z,8.72
2023-05-05T03:37:20.845Z,9.06
2023-05-05T03:38:20.844Z,8.78
2023-05-05T03:39:20.865Z,8.23
2023-05-05T03:40:27.198Z,8.21
2023-05-05T03:41:20.847Z,8.94
2023-05-05T03:42:20.895Z,7.63
2023-05-05T03:43:20.886Z,7.71
2023-05-05T03:44:20.890Z,7.73
2023-05-05T03:45:20.886Z,8.07
2023-05-05T03:46:20.895Z,7.27
2023-05-05T03:48:20.881Z,8.20
2023-05-05T03:49:20.923Z,7.20
2023-05-05T03:50:20.874Z,8.03
2023-05-05T03:51:20.889Z,7.86
2023-05-05T03:52:20.907Z,8.11
2023-05-05T03:53:20.900Z,7.92
2023-05-05T03:54:20.899Z,7.45
2023-05-05T03:55:20.927Z,7.80
2023-05-05T03:56:20.903Z,7.75
2023-05-05T03:57:20.905Z,7.83
2023-05-05T03:58:20.902Z,8.43
2023-05-05T03:59:22.372Z,7.93
2023-05-05T04:00:20.927Z,8.00
2023-05-05T04:02:21.059Z,7.67
2023-05-05T04:03:21.031Z,6.86
2023-05-05T04:04:21.006Z,8.33
2023-05-05T04:05:20.951Z,9.25
2023-05-05T04:06:20.925Z,8.14
2023-05-05T04:08:20.967Z,8.16
2023-05-05T04:09:20.960Z,9.16
2023-05-05T04:10:21.022Z,7.98
2023-05-05T04:11:20.981Z,7.93
2023-05-05T04:12:20.949Z,7.92
2023-05-05T04:13:20.992Z,8.26
2023-05-05T04:15:20.928Z,8.33
2023-05-05T04:16:21.036Z,8.49
2023-05-05T04:17:20.988Z,8.01
2023-05-05T04:18:20.951Z,7.84
2023-05-05T04:19:20.958Z,7.83
2023-05-05T04:20:20.969Z,7.19
2023-05-05T04:21:20.990Z,7.34
2023-05-05T04:23:21.012Z,7.61
2023-05-05T04:24:21.074Z,8.21
2023-05-05T04:25:20.981Z,7.77
2023-05-05T04:26:21.035Z,8.39
2023-05-05T04:27:21.006Z,8.30
2023-05-05T04:30:21.003Z,8.23
2023-05-05T04:31:21.067Z,8.94
2023-05-05T04:32:21.006Z,9.28
2023-05-05T04:33:20.960Z,7.91
2023-05-05T04:34:21.047Z,8.16
2023-05-05T04:35:21.040Z,8.39
2023-05-05T04:36:22.566Z,8.37
2023-05-05T04:39:21.012Z,6.76
2023-05-05T04:40:21.013Z,7.89
2023-05-05T04:41:20.995Z,8.55
2023-05-05T04:42:21.018Z,7.67
2023-05-05T04:43:21.003Z,7.64
2023-05-05T04:44:21.026Z,8.76
2023-05-05T04:45:21.031Z,8.25
2023-05-05T04:46:21.013Z,8.04
2023-05-05T04:47:21.041Z,8.22
2023-05-05T04:48:21.047Z,8.20
2023-05-05T04:49:21.034Z,8.80
2023-05-05T04:50:21.041Z,8.30
2023-05-05T04:51:21.013Z,8.41
2023-05-05T04:52:21.053Z,8.22
2023-05-05T04:53:21.059Z,7.70
2023-05-05T04:54:21.049Z,8.12
2023-05-05T04:55:21.086Z,8.09
2023-05-05T04:56:21.104Z,8.79
2023-05-05T04:57:21.090Z,8.46
2023-05-05T04:58:21.071Z,8.28
2023-05-05T04:59:21.052Z,8.07
2023-05-05T05:00:21.084Z,8.54
2023-05-05T05:01:21.097Z,8.21
2023-05-05T05:02:21.227Z,7.85
2023-05-05T05:03:21.214Z,7.79
2023-05-05T05:04:21.054Z,8.00
2023-05-05T05:05:21.053Z,8.45
2023-05-05T05:06:21.145Z,8.51
2023-05-05T05:07:21.062Z,8.57
2023-05-05T05:08:21.118Z,8.66
2023-05-05T05:09:21.100Z,7.84
2023-05-05T05:10:21.093Z,7.94
2023-05-05T05:12:21.066Z,8.10
2023-05-05T05:13:22.899Z,8.45
2023-05-05T05:15:21.112Z,8.53
2023-05-05T05:17:21.077Z,8.69
2023-05-05T05:18:21.145Z,7.90
2023-05-05T05:19:21.095Z,10.84
2023-05-05T05:20:21.115Z,10.73
2023-05-05T05:21:21.114Z,10.41
2023-05-05T05:22:21.161Z,10.71
2023-05-05T05:23:21.125Z,10.47
2023-05-05T05:24:21.163Z,10.09
2023-05-05T05:25:21.099Z,11.68
2023-05-05T05:26:21.133Z,11.87
2023-05-05T05:27:21.132Z,12.36
2023-05-05T05:28:21.155Z,10.04
2023-05-05T05:29:21.135Z,9.15
2023-05-05T05:30:21.116Z,9.69
2023-05-05T05:31:21.197Z,9.66
2023-05-05T05:32:21.185Z,10.20
2023-05-05T05:33:21.113Z,9.40
2023-05-05T05:34:21.166Z,9.80
2023-05-05T05:35:21.169Z,10.15
2023-05-05T05:36:21.202Z,10.02
2023-05-05T05:37:21.197Z,9.78
2023-05-05T05:38:21.160Z,10.49
2023-05-05T05:39:21.172Z,10.05
2023-05-05T05:40:21.182Z,12.51
2023-05-05T05:41:21.192Z,10.68
2023-05-05T05:42:21.169Z,10.75
2023-05-05T05:43:21.135Z,12.10
2023-05-05T05:44:21.202Z,12.10
2023-05-05T05:45:21.175Z,12.78
2023-05-05T05:46:21.321Z,11.26
2023-05-05T05:47:21.215Z,10.95
2023-05-05T05:48:21.185Z,11.42
2023-05-05T05:49:21.188Z,10.17
2023-05-05T05:50:22.970Z,8.21
2023-05-05T05:51:21.152Z,8.67
2023-05-05T05:52:21.196Z,8.63
2023-05-05T05:53:21.245Z,8.01
2023-05-05T05:54:21.215Z,9.06
2023-05-05T05:55:21.304Z,8.98
2023-05-05T05:56:21.158Z,7.90
2023-05-05T05:57:21.234Z,8.75
2023-05-05T05:58:21.203Z,8.46
2023-05-05T05:59:21.240Z,9.28
2023-05-05T06:00:21.236Z,8.09
2023-05-05T06:01:21.219Z,8.32
2023-05-05T06:02:21.258Z,8.04
2023-05-05T06:03:21.421Z,8.48
2023-05-05T06:04:21.271Z,7.65
2023-05-05T06:05:21.237Z,8.61
2023-05-05T06:07:21.269Z,8.30
2023-05-05T06:09:21.195Z,7.01
2023-05-05T06:11:21.266Z,7.46
2023-05-05T06:12:21.233Z,7.44
2023-05-05T06:13:21.253Z,7.41
2023-05-05T06:14:21.252Z,7.80
2023-05-05T06:15:21.301Z,7.71
2023-05-05T06:16:21.293Z,7.21
2023-05-05T06:17:21.216Z,7.11
2023-05-05T06:18:21.304Z,7.34
2023-05-05T06:19:21.297Z,7.51
2023-05-05T06:20:21.295Z,7.61
2023-05-05T06:21:21.292Z,7.96
2023-05-05T06:22:21.264Z,7.55
2023-05-05T06:23:21.325Z,7.89
2023-05-05T06:24:21.274Z,8.50
2023-05-05T06:25:21.249Z,8.25
2023-05-05T06:26:21.283Z,8.02
2023-05-05T06:27:23.141Z,9.02
2023-05-05T06:28:21.298Z,8.63
2023-05-05T06:29:21.314Z,7.85
2023-05-05T06:30:21.280Z,9.11
2023-05-05T06:31:21.343Z,8.69
2023-05-05T06:32:21.327Z,9.12
2023-05-05T06:33:21.336Z,8.00
2023-05-05T06:34:21.325Z,8.80
2023-05-05T06:35:21.291Z,8.41
2023-05-05T06:36:21.330Z,8.94
2023-05-05T06:37:21.304Z,8.33
2023-05-05T06:38:21.332Z,8.29
2023-05-05T06:39:21.341Z,8.48
2023-05-05T06:40:21.285Z,7.91
2023-05-05T06:41:21.290Z,8.08
2023-05-05T06:42:21.336Z,8.28
2023-05-05T06:43:21.322Z,8.06
2023-05-05T06:44:21.366Z,8.02
2023-05-05T06:45:21.370Z,8.08
2023-05-05T06:46:21.405Z,8.10
2023-05-05T06:47:21.359Z,8.24
2023-05-05T06:48:21.305Z,8.37
2023-05-05T06:49:21.337Z,8.45
2023-05-05T06:50:21.370Z,7.95
2023-05-05T06:51:21.351Z,7.10
2023-05-05T06:52:21.390Z,7.63
2023-05-05T06:53:21.321Z,6.39
2023-05-05T06:54:21.382Z,6.03
2023-05-05T06:55:21.412Z,6.71
2023-05-05T06:56:21.348Z,6.86
2023-05-05T06:57:21.360Z,6.06
2023-05-05T06:58:21.394Z,6.49
2023-05-05T06:59:21.401Z,7.16
2023-05-05T07:00:21.416Z,6.28
2023-05-05T07:01:21.388Z,6.89
2023-05-05T07:02:21.380Z,6.66
2023-05-05T07:03:21.516Z,6.59
2023-05-05T07:04:23.327Z,6.31
2023-05-05T07:05:21.457Z,6.89
2023-05-05T07:06:21.416Z,8.78
2023-05-05T07:07:21.397Z,6.66
2023-05-05T07:08:21.409Z,5.63
2023-05-05T07:09:21.356Z,5.78
2023-05-05T07:11:21.448Z,5.32
2023-05-05T07:12:21.444Z,5.58
2023-05-05T07:13:21.419Z,5.76
2023-05-05T07:14:24.166Z,5.40
2023-05-05T07:15:27.606Z,5.72
2023-05-05T07:16:21.470Z,5.41
2023-05-05T07:17:21.461Z,5.41
2023-05-05T07:18:21.396Z,5.53
2023-05-05T07:19:21.426Z,5.83
2023-05-05T07:20:21.428Z,5.64
2023-05-05T07:21:21.431Z,5.96
2023-05-05T07:22:21.415Z,5.08
2023-05-05T07:23:21.475Z,5.98
2023-05-05T07:24:21.457Z,5.45
2023-05-05T07:25:21.409Z,5.62
2023-05-05T07:26:21.473Z,5.17
2023-05-05T07:27:21.429Z,4.51
2023-05-05T07:28:21.485Z,4.44
2023-05-05T07:29:21.456Z,4.35
2023-05-05T07:30:21.568Z,4.13
2023-05-05T07:31:21.484Z,4.73
2023-05-05T07:32:21.607Z,4.61
2023-05-05T07:33:21.461Z,4.56
2023-05-05T07:34:21.477Z,5.12
2023-05-05T07:35:21.430Z,5.74
2023-05-05T07:36:21.461Z,4.40
2023-05-05T07:37:21.468Z,4.40
2023-05-05T07:38:21.442Z,4.96
2023-05-05T07:39:21.501Z,4.83
2023-05-05T07:40:21.451Z,4.76
2023-05-05T07:41:23.563Z,4.42
2023-05-05T07:42:21.510Z,5.07
2023-05-05T07:43:21.480Z,5.08
2023-05-05T07:44:21.492Z,4.75
2023-05-05T07:45:21.512Z,6.36
2023-05-05T07:46:21.577Z,4.95
2023-05-05T07:47:21.531Z,5.40
2023-05-05T07:48:21.525Z,5.72
2023-05-05T07:49:21.712Z,5.12
2023-05-05T07:50:21.511Z,6.10
2023-05-05T07:51:21.481Z,5.51
2023-05-05T07:52:25.221Z,5.70
2023-05-05T07:53:21.516Z,5.14
2023-05-05T07:54:21.512Z,5.35
2023-05-05T07:55:21.516Z,5.54
2023-05-05T07:56:21.928Z,5.61
2023-05-05T07:57:21.508Z,5.15
2023-05-05T07:58:21.542Z,5.21
2023-05-05T07:59:21.543Z,5.90
2023-05-05T08:00:21.551Z,6.09
2023-05-05T08:01:21.490Z,5.38
2023-05-05T08:02:21.612Z,5.25
2023-05-05T08:03:21.674Z,5.41
2023-05-05T08:04:21.495Z,5.45
2023-05-05T08:05:21.544Z,5.00
2023-05-05T08:06:21.576Z,4.95
2023-05-05T08:07:21.610Z,5.01
2023-05-05T08:08:21.552Z,4.61
2023-05-05T08:09:21.528Z,4.87
2023-05-05T08:10:21.594Z,4.67
2023-05-05T08:11:21.557Z,6.19
2023-05-05T08:12:21.567Z,5.17
2023-05-05T08:13:21.577Z,6.08
2023-05-05T08:14:21.573Z,5.96
2023-05-05T08:15:21.612Z,5.27
2023-05-05T08:16:21.639Z,4.69
2023-05-05T08:17:21.580Z,4.51
2023-05-05T08:18:23.776Z,4.51
2023-05-05T08:19:28.851Z,4.15
2023-05-05T08:21:21.617Z,3.93
2023-05-05T08:22:21.560Z,4.33
2023-05-05T08:23:21.603Z,4.32
2023-05-05T08:24:21.577Z,3.91
2023-05-05T08:25:21.612Z,4.30
2023-05-05T08:26:21.613Z,4.91
2023-05-05T08:27:21.564Z,4.04
2023-05-05T08:28:21.614Z,4.31
2023-05-05T08:29:21.623Z,4.39
2023-05-05T08:30:21.590Z,3.89
2023-05-05T08:31:21.690Z,3.69
2023-05-05T08:32:21.641Z,4.50
2023-05-05T08:33:21.653Z,3.88
2023-05-05T08:34:21.645Z,4.53
2023-05-05T08:35:21.591Z,4.82
2023-05-05T08:36:21.625Z,5.21
2023-05-05T08:37:21.638Z,5.09
2023-05-05T08:38:21.609Z,4.32
2023-05-05T08:39:21.657Z,4.03
2023-05-05T08:40:21.670Z,4.57
2023-05-05T08:41:21.681Z,4.12
2023-05-05T08:42:35.488Z,4.67
2023-05-05T08:43:21.607Z,4.29
2023-05-05T08:44:21.649Z,3.62
2023-05-05T08:45:21.621Z,3.91
2023-05-05T08:46:21.693Z,3.94
2023-05-05T08:47:21.657Z,3.91
2023-05-05T08:48:21.616Z,5.23
2023-05-05T08:49:21.676Z,4.22
2023-05-05T08:50:21.710Z,4.77
2023-05-05T08:51:21.626Z,4.57
2023-05-05T08:53:21.680Z,4.35
2023-05-05T08:54:21.672Z,4.61
2023-05-05T08:55:23.928Z,4.78
2023-05-05T08:56:21.657Z,5.02
2023-05-05T08:57:21.676Z,4.62
2023-05-05T08:58:21.718Z,4.90
2023-05-05T08:59:21.726Z,4.25
2023-05-05T09:00:21.723Z,4.81
2023-05-05T09:01:21.711Z,5.09
2023-05-05T09:02:21.771Z,4.69
2023-05-05T09:03:21.764Z,4.09
2023-05-05T09:04:21.677Z,4.73
2023-05-05T09:05:21.708Z,4.78
2023-05-05T09:06:21.743Z,4.32
2023-05-05T09:07:21.707Z,4.59
2023-05-05T09:08:21.706Z,5.01
2023-05-05T09:09:21.685Z,4.96
2023-05-05T09:10:21.781Z,4.65
2023-05-05T09:11:21.711Z,4.28
2023-05-05T09:12:21.752Z,4.48
2023-05-05T09:13:21.751Z,4.90
2023-05-05T09:14:21.736Z,4.80
2023-05-05T09:15:21.759Z,5.07
2023-05-05T09:17:21.747Z,4.76
2023-05-05T09:18:21.743Z,5.11
2023-05-05T09:19:21.713Z,4.60
2023-05-05T09:20:21.802Z,4.59
2023-05-05T09:21:21.768Z,4.58
2023-05-05T09:22:21.727Z,4.51
2023-05-05T09:23:21.767Z,4.57
2023-05-05T09:24:21.782Z,4.66
2023-05-05T09:25:21.795Z,5.79
2023-05-05T09:26:21.780Z,5.75
2023-05-05T09:28:21.764Z,5.15
2023-05-05T09:29:21.777Z,5.18
2023-05-05T09:30:21.732Z,5.01
2023-05-05T09:31:21.819Z,4.61
2023-05-05T09:32:24.105Z,5.23
2023-05-05T09:33:21.790Z,4.74
2023-05-05T09:34:21.777Z,5.55
2023-05-05T09:35:21.737Z,4.30
2023-05-05T09:36:21.832Z,4.59
2023-05-05T09:37:21.819Z,4.61
2023-05-05T09:38:21.794Z,4.80
2023-05-05T09:39:21.782Z,4.66
2023-05-05T09:40:21.844Z,5.19
2023-05-05T09:41:21.819Z,5.18
2023-05-05T09:43:21.820Z,5.07
2023-05-05T09:44:21.812Z,4.75
2023-05-05T09:45:21.841Z,5.25
2023-05-05T09:46:21.865Z,4.98
2023-05-05T09:47:29.373Z,5.04
2023-05-05T09:48:21.817Z,4.89
2023-05-05T09:49:21.847Z,5.06
2023-05-05T09:50:21.852Z,5.58
2023-05-05T09:51:21.851Z,5.30
2023-05-05T09:52:21.824Z,5.21
2023-05-05T09:53:21.866Z,5.17
2023-05-05T09:54:21.866Z,4.68
2023-05-05T09:55:21.827Z,5.37
2023-05-05T09:56:21.871Z,5.54
2023-05-05T09:57:21.839Z,5.22
2023-05-05T09:58:21.906Z,4.89
2023-05-05T09:59:21.878Z,5.56
2023-05-05T10:00:21.964Z,4.51
2023-05-05T10:01:21.880Z,4.15
2023-05-05T10:02:21.881Z,5.11
2023-05-05T10:03:21.886Z,5.35
2023-05-05T10:04:21.934Z,5.74
2023-05-05T10:05:21.960Z,4.88
2023-05-05T10:06:21.844Z,4.69
2023-05-05T10:07:21.844Z,4.90
2023-05-05T10:08:21.873Z,4.27
2023-05-05T10:09:24.320Z,4.72
2023-05-05T10:10:22.053Z,5.94
2023-05-05T10:11:21.886Z,6.04
2023-05-05T10:12:21.905Z,5.78
2023-05-05T10:13:21.910Z,6.08
2023-05-05T10:14:21.875Z,6.79
2023-05-05T10:15:21.900Z,5.38
2023-05-05T10:16:22.087Z,6.02
2023-05-05T10:17:21.898Z,5.91
2023-05-05T10:18:21.938Z,4.97
2023-05-05T10:19:21.860Z,5.17
2023-05-05T10:20:21.929Z,5.29
2023-05-05T10:21:21.860Z,4.76
2023-05-05T10:22:21.899Z,5.01
2023-05-05T10:23:21.911Z,4.98
2023-05-05T10:24:21.899Z,5.61
2023-05-05T10:25:21.906Z,5.39
2023-05-05T10:26:21.945Z,4.70
2023-05-05T10:27:21.900Z,4.83
2023-05-05T10:28:21.991Z,5.85
2023-05-05T10:29:22.007Z,6.12
2023-05-05T10:30:21.944Z,5.05
2023-05-05T10:31:26.515Z,5.92
2023-05-05T10:34:21.981Z,5.33
2023-05-05T10:35:21.958Z,4.89
2023-05-05T10:36:21.991Z,4.88
2023-05-05T10:37:21.944Z,5.20
2023-05-05T10:38:22.729Z,5.02
2023-05-05T10:39:21.980Z,5.30
2023-05-05T10:40:21.930Z,5.25
2023-05-05T10:41:22.007Z,4.87
2023-05-05T10:42:21.987Z,5.12
2023-05-05T10:43:21.927Z,5.05
2023-05-05T10:44:21.965Z,5.04
2023-05-05T10:45:22.033Z,5.22
2023-05-05T10:46:24.551Z,5.09
2023-05-05T10:47:22.054Z,5.47
2023-05-05T10:48:21.964Z,5.40
2023-05-05T10:49:21.959Z,4.97
2023-05-05T10:50:21.996Z,5.16
2023-05-05T10:51:35.229Z,4.94
2023-05-05T10:52:21.990Z,4.67
2023-05-05T10:53:21.964Z,4.48
2023-05-05T10:54:22.041Z,5.09
2023-05-05T10:55:22.027Z,5.27
2023-05-05T10:56:22.018Z,4.97
2023-05-05T10:57:22.043Z,4.99
2023-05-05T10:58:21.989Z,5.11
2023-05-05T10:59:22.012Z,5.02
2023-05-05T11:00:22.037Z,4.76
2023-05-05T11:01:22.023Z,5.45
2023-05-05T11:02:22.020Z,4.29
2023-05-05T11:03:22.209Z,4.52
2023-05-05T11:04:22.065Z,4.75
2023-05-05T11:05:22.025Z,4.31
2023-05-05T11:06:21.990Z,4.20
2023-05-05T11:07:22.056Z,4.62
2023-05-05T11:08:22.038Z,4.17
2023-05-05T11:09:22.035Z,4.07
2023-05-05T11:10:22.070Z,5.06
2023-05-05T11:11:22.026Z,4.25
2023-05-05T11:12:22.051Z,4.42
2023-05-05T11:13:22.132Z,4.25
2023-05-05T11:15:22.071Z,4.85
2023-05-05T11:16:22.069Z,4.41
2023-05-05T11:17:22.076Z,4.57
2023-05-05T11:18:22.077Z,4.01
2023-05-05T11:19:22.027Z,4.76
2023-05-05T11:20:22.083Z,5.01
2023-05-05T11:21:22.097Z,4.34
2023-05-05T11:22:22.082Z,5.43
2023-05-05T11:23:24.715Z,4.44
2023-05-05T11:24:22.044Z,4.34
2023-05-05T11:25:22.077Z,4.01
2023-05-05T11:26:22.106Z,5.02
2023-05-05T11:27:22.051Z,4.88
2023-05-05T11:28:22.054Z,5.67
2023-05-05T11:29:22.050Z,5.19
2023-05-05T11:30:22.092Z,5.20
2023-05-05T11:31:22.163Z,5.00
2023-05-05T11:32:22.051Z,4.65
2023-05-05T11:33:22.127Z,4.16
2023-05-05T11:34:22.120Z,5.03
2023-05-05T11:35:22.137Z,4.66
2023-05-05T11:36:22.099Z,4.92
2023-05-05T11:37:22.079Z,4.52
2023-05-05T11:38:22.114Z,4.48
2023-05-05T11:39:22.113Z,4.36
2023-05-05T11:40:22.139Z,4.53
2023-05-05T11:41:22.168Z,4.71
2023-05-05T11:42:22.106Z,4.36
2023-05-05T11:43:22.178Z,5.37
2023-05-05T11:44:22.146Z,4.60
2023-05-05T11:45:22.108Z,5.06
2023-05-05T11:46:22.190Z,5.80
2023-05-05T11:47:22.160Z,5.11
2023-05-05T11:49:22.137Z,4.47
2023-05-05T11:50:22.150Z,4.18
2023-05-05T11:52:22.164Z,4.68
2023-05-05T11:53:22.192Z,4.47
2023-05-05T11:54:22.172Z,4.48
2023-05-05T11:55:22.109Z,5.25
2023-05-05T11:56:22.145Z,4.76
2023-05-05T11:58:22.164Z,4.47
2023-05-05T11:59:22.204Z,4.59
2023-05-05T12:00:24.900Z,4.61
2023-05-05T12:03:22.290Z,4.05
2023-05-05T12:04:22.228Z,4.53
2023-05-05T12:05:22.184Z,4.06
2023-05-05T12:06:22.182Z,4.61
2023-05-05T12:07:22.187Z,4.36
2023-05-05T12:08:22.145Z,4.35
2023-05-05T12:09:22.176Z,4.63
2023-05-05T12:10:22.224Z,4.50
2023-05-05T12:11:22.210Z,5.27
2023-05-05T12:12:22.219Z,5.09
2023-05-05T12:13:22.297Z,4.46
2023-05-05T12:14:22.258Z,4.17
2023-05-05T12:17:22.225Z,4.55
2023-05-05T12:18:22.241Z,4.32
2023-05-05T12:19:22.247Z,3.96
2023-05-05T12:20:22.245Z,4.52
2023-05-05T12:22:22.197Z,4.53
2023-05-05T12:23:22.246Z,4.40
2023-05-05T12:24:22.238Z,4.11
2023-05-05T12:25:22.261Z,4.28
2023-05-05T12:26:22.249Z,4.47
2023-05-05T12:27:22.260Z,4.82
2023-05-05T12:28:22.238Z,4.61
2023-05-05T12:29:22.198Z,4.91
2023-05-05T12:30:22.296Z,4.31
2023-05-05T12:31:22.285Z,4.15
2023-05-05T12:32:22.266Z,4.27
2023-05-05T12:33:22.261Z,4.12
2023-05-05T12:34:22.288Z,5.09
2023-05-05T12:35:22.286Z,4.53
2023-05-05T12:36:22.264Z,4.58
2023-05-05T12:37:25.120Z,4.72
2023-05-05T12:38:22.287Z,4.25
2023-05-05T12:39:22.306Z,4.88
2023-05-05T12:40:22.329Z,4.43
2023-05-05T12:41:22.313Z,5.05
2023-05-05T12:42:22.289Z,4.87
2023-05-05T12:43:22.262Z,4.69
2023-05-05T12:44:22.318Z,4.24
2023-05-05T12:45:22.250Z,3.97
2023-05-05T12:46:22.427Z,4.73
2023-05-05T12:47:22.290Z,4.80
2023-05-05T12:48:22.325Z,5.15
2023-05-05T12:49:22.303Z,5.15
2023-05-05T12:50:22.279Z,5.25
2023-05-05T12:51:22.304Z,6.08
2023-05-05T12:52:22.302Z,4.78
2023-05-05T12:53:22.311Z,5.15
2023-05-05T12:56:22.365Z,5.43
2023-05-05T12:57:22.350Z,4.37
2023-05-05T12:58:22.319Z,4.81
2023-05-05T12:59:22.312Z,4.43
2023-05-05T13:00:22.325Z,4.29
2023-05-05T13:01:22.358Z,4.28
2023-05-05T13:02:22.420Z,4.50
2023-05-05T13:03:22.445Z,4.63
2023-05-05T13:04:22.370Z,4.81
2023-05-05T13:05:22.350Z,4.47
2023-05-05T13:06:22.343Z,4.54
2023-05-05T13:07:22.377Z,4.38
2023-05-05T13:08:22.368Z,4.20
2023-05-05T13:09:22.386Z,4.53
2023-05-05T13:10:22.345Z,4.00
2023-05-05T13:11:22.352Z,4.02
2023-05-05T13:12:24.973Z,4.12
2023-05-05T13:14:25.281Z,4.66
2023-05-05T13:16:22.417Z,4.49
2023-05-05T13:17:22.375Z,4.66
2023-05-05T13:18:22.410Z,4.75
2023-05-05T13:19:22.348Z,4.07
2023-05-05T13:20:22.398Z,3.78
2023-05-05T13:21:22.391Z,3.80
2023-05-05T13:22:22.423Z,4.40
2023-05-05T13:24:34.409Z,4.52
2023-05-05T13:26:22.440Z,5.17
2023-05-05T13:27:22.377Z,4.80
2023-05-05T13:28:22.405Z,4.57
2023-05-05T13:29:23.591Z,4.62
2023-05-05T13:30:22.414Z,3.97
2023-05-05T13:31:22.466Z,4.18
2023-05-05T13:32:22.402Z,4.50
2023-05-05T13:33:22.405Z,4.58
2023-05-05T13:34:22.436Z,5.01
2023-05-05T13:35:22.430Z,5.13
2023-05-05T13:36:22.448Z,5.51
2023-05-05T13:37:22.437Z,4.49
2023-05-05T13:38:22.436Z,4.50
2023-05-05T13:39:22.429Z,4.68
2023-05-05T13:40:23.818Z,4.37
2023-05-05T13:41:22.471Z,3.87
2023-05-05T13:42:22.449Z,4.39
2023-05-05T13:43:22.483Z,4.65
2023-05-05T13:44:22.413Z,4.38
2023-05-05T13:45:22.453Z,4.12
2023-05-05T13:46:22.448Z,4.85
2023-05-05T13:47:22.713Z,4.70
2023-05-05T13:48:22.448Z,4.60
2023-05-05T13:49:22.487Z,4.75
2023-05-05T13:51:25.491Z,4.63
2023-05-05T13:52:22.474Z,4.40
2023-05-05T13:53:22.451Z,4.13
2023-05-05T13:54:22.495Z,4.39
2023-05-05T13:55:22.501Z,5.16
2023-05-05T13:56:22.482Z,4.59
2023-05-05T13:57:22.509Z,4.61
2023-05-05T13:58:22.447Z,4.69
2023-05-05T13:59:22.448Z,4.47
2023-05-05T14:01:22.589Z,3.98
2023-05-05T14:02:22.518Z,4.56
2023-05-05T14:03:22.480Z,4.46
2023-05-05T14:04:22.660Z,5.05
2023-05-05T14:05:22.529Z,4.39
2023-05-05T14:06:22.495Z,4.49
2023-05-05T14:09:22.533Z,5.02
2023-05-05T14:11:22.493Z,4.47
2023-05-05T14:12:22.542Z,4.12
2023-05-05T14:13:22.574Z,3.94
2023-05-05T14:14:22.535Z,4.42
2023-05-05T14:15:22.578Z,4.16
2023-05-05T14:16:22.552Z,4.44
2023-05-05T14:17:22.572Z,4.14
2023-05-05T14:18:22.579Z,4.62
2023-05-05T14:19:22.544Z,4.24
2023-05-05T14:20:22.597Z,4.22
2023-05-05T14:21:22.550Z,4.12
2023-05-05T14:22:22.549Z,4.71
2023-05-05T14:23:22.541Z,4.19
2023-05-05T14:24:22.544Z,4.38
2023-05-05T14:25:22.586Z,4.08
2023-05-05T14:26:22.583Z,4.65
2023-05-05T14:27:22.580Z,4.81
2023-05-05T14:28:25.644Z,4.42
2023-05-05T14:29:22.541Z,5.20
2023-05-05T14:30:22.610Z,4.90